Terminal Aerodrome Forecast
Issued by NWS Tampa Bay Area, FL

Home | Current Version | Previous Version | Text Only | Print | Product List | Glossary On
Versions: 1 2 3 4 5 6 7 8 9 10 11 12 13 14 15 16 17 18 19 20 21 22 23 24 25 26 27 28 29
000
FTUS42 KTBW 242343
TAFTPA
TAF
KTPA 242343Z 2500/2524 32006KT P6SM FEW060 BKN250
     FM250200 06005KT P6SM FEW040 SCT250
     FM250600 13005KT P6SM SCT020 BKN250
     FM251400 17010KT P6SM SCT030 SCT120 BKN250
     FM251800 21012G22KT P6SM FEW035 SCT250=

USA.gov is the U.S. government's official web portal to all federal, state and local government web resources and services.